Terminal Aerodrome Forecast
Issued by NWS Cleveland, OH

Home | Current Version | Previous Version | Graphics & Text | Print | Product List | Glossary On
Versions: 1 2 3 4 5 6 7 8 9 10 11 12 13 14 15
000
FTUS41 KCLE 201600 AAA
TAFERI
TAF AMD
KERI 201612Z 2016/2112 31008KT P6SM BKN025 OVC035
     FM201700 33008KT P6SM SCT035 BKN250
     FM210200 VRB03KT P6SM BKN100=

USA.gov is the U.S. government's official web portal to all federal, state and local government web resources and services.